Pagina principală
METAR-TAF:

METAR-TAF

Aeroporturi :

Friday Harbor Airport

Friday Harbor, Washington, Statele Unite ale Americii

Latitudine: 48-31-13N, longitudine: 123-01-31W, elevație: 33 m

Observații meteo curente

Raportul a fost făcut în urmă cu 50 de minute, la 16:53 UTC
Vânt 7 kt de la Sud/Sud-est
Temperatură 16°C
Umiditate 63%
Presiune 1021 hPa
Vizibilitate: 16.1 km
Nori puțini la o înălțime de 4800 picior

METAR: KFHR 141653Z AUTO 16007KT 10SM FEW048 16/09 A3015 RMK AO2 SLP209 T01610089

Ora: 10:43 (17:43 UTC)


TAF: lipsă

Observații și prognoze meteo pentru peste 4.000 de aeroporturi (rapoarte METAR și TAF).

Stațiile disponibile sunt reprezentate pe hartă prin puncte galbene și roșii.

Țineți indicatorul mouse-ului pe punctul dorit pentru a vedea denumirea stației.

Apoi, faceți clic pentru a vedea observațiile și prognozele meteorologice.

Pentru a schimba harta: Pentru mărire, faceți clic pe butoanele verzi cu cruce neagră; pentru micșorare, pe butonul verde cu o liniuță; pentru hărți învecinate, pe săgețile verzi.


METAR-TAF: